Time;durP1;ratioP1;P1;durP2;ratioP2;P2;SDS_P1;SDS_P2;PMS_P1;PMS_P2;Temp;Humidity;BMP_temperature;BMP_pressure;BME280_temperature;BME280_humidity;BME280_pressure;Samples;Min_cycle;Max_cycle;Signal;HPM_P1;HPM_P2
2023/02/17 00:00:29;;;;;;;28.60;16.60;;;10.30;99.90;;;;;;5072510;28;20059;-69
2023/02/17 00:02:58;;;;;;;32.00;17.52;;;10.20;99.90;;;;;;5073817;28;20060;-69
2023/02/17 00:05:25;;;;;;;31.10;16.73;;;10.30;99.90;;;;;;5073556;28;20024;-69
2023/02/17 00:07:51;;;;;;;35.00;17.70;;;10.30;99.90;;;;;;5073522;28;20082;-69
2023/02/17 00:10:17;;;;;;;29.10;17.15;;;10.30;99.90;;;;;;5073796;28;20389;-69
2023/02/17 00:12:43;;;;;;;34.95;16.80;;;10.30;99.90;;;;;;5073429;28;20425;-68
2023/02/17 00:15:09;;;;;;;30.92;16.27;;;10.40;99.90;;;;;;5073356;28;20119;-69
2023/02/17 00:17:34;;;;;;;27.00;16.20;;;10.40;99.90;;;;;;5072105;28;20123;-69
2023/02/17 00:20:00;;;;;;;28.70;16.67;;;10.50;99.90;;;;;;5073708;28;20016;-69
2023/02/17 00:22:26;;;;;;;25.65;15.45;;;10.40;99.90;;;;;;5073714;28;20107;-69
2023/02/17 00:24:52;;;;;;;29.00;15.45;;;10.40;99.90;;;;;;5073278;28;20071;-69
2023/02/17 00:27:18;;;;;;;25.10;14.40;;;10.50;99.90;;;;;;5071853;28;20024;-70
2023/02/17 00:29:44;;;;;;;27.83;14.95;;;10.50;99.90;;;;;;5072927;28;20410;-70
2023/02/17 00:32:10;;;;;;;26.90;15.00;;;10.60;99.90;;;;;;5073075;28;20032;-70
2023/02/17 00:34:36;;;;;;;24.85;14.65;;;10.50;99.90;;;;;;5073576;28;20379;-70
2023/02/17 00:37:02;;;;;;;23.73;14.57;;;10.60;99.90;;;;;;5073139;28;20024;-70
2023/02/17 00:39:27;;;;;;;24.60;13.88;;;10.60;99.90;;;;;;5072776;28;20032;-69
2023/02/17 00:41:53;;;;;;;27.33;13.85;;;10.70;99.90;;;;;;5073029;28;20052;-70
2023/02/17 00:44:21;;;;;;;24.60;13.95;;;10.70;99.90;;;;;;5072773;28;20044;-69
2023/02/17 00:46:47;;;;;;;22.75;13.48;;;10.70;99.90;;;;;;5073323;28;20425;-71
2023/02/17 00:49:19;;;;;;;24.85;14.48;;;10.70;99.90;;;;;;5072860;28;20025;-70
2023/02/17 00:51:45;;;;;;;21.27;13.90;;;10.80;99.90;;;;;;5072729;28;20036;-71
2023/02/17 00:54:11;;;;;;;21.27;13.07;;;10.80;99.90;;;;;;5072689;28;20107;-70
2023/02/17 00:56:37;;;;;;;18.58;12.85;;;10.70;99.90;;;;;;5072780;28;20070;-70
2023/02/17 00:59:03;;;;;;;22.17;13.13;;;10.80;99.90;;;;;;5072095;28;20115;-70
2023/02/17 01:01:29;;;;;;;22.77;13.45;;;10.80;99.90;;;;;;5073392;28;20017;-70
2023/02/17 01:03:54;;;;;;;22.20;13.32;;;10.80;99.90;;;;;;5072760;28;20048;-70
2023/02/17 01:06:25;;;;;;;20.63;13.68;;;10.80;99.90;;;;;;5072720;28;20033;-70
2023/02/17 01:08:51;;;;;;;24.25;14.40;;;10.90;99.90;;;;;;5072571;28;20111;-70
2023/02/17 01:11:22;;;;;;;23.67;12.75;;;10.80;99.90;;;;;;5072478;28;20024;-70
2023/02/17 01:13:48;;;;;;;20.52;13.35;;;10.90;99.90;;;;;;5073032;28;20025;-69
2023/02/17 01:16:23;;;;;;;21.42;13.23;;;10.90;99.90;;;;;;5072544;28;20024;-70
2023/02/17 01:18:49;;;;;;;20.52;13.77;;;11.00;99.90;;;;;;5071301;28;20458;-70
2023/02/17 01:21:23;;;;;;;20.23;12.60;;;11.00;99.90;;;;;;5071368;28;20107;-69
2023/02/17 01:23:52;;;;;;;19.90;12.15;;;11.00;99.90;;;;;;5072382;28;20024;-70
2023/02/17 01:26:22;;;;;;;18.67;12.05;;;11.00;99.90;;;;;;5072292;28;20463;-70
2023/02/17 01:28:49;;;;;;;20.45;12.95;;;11.00;99.90;;;;;;5072624;28;20540;-69
2023/02/17 01:31:15;;;;;;;17.70;12.80;;;11.00;99.90;;;;;;5072362;28;20078;-69
2023/02/17 01:33:41;;;;;;;20.23;13.23;;;11.00;99.90;;;;;;5072185;28;20106;-70
2023/02/17 01:36:12;;;;;;;19.83;13.48;;;11.10;99.90;;;;;;5072117;28;20029;-70
2023/02/17 01:38:38;;;;;;;18.67;12.57;;;11.00;99.90;;;;;;5071970;28;20036;-69
2023/02/17 01:41:04;;;;;;;19.80;12.95;;;11.10;99.90;;;;;;5070882;28;20029;-70
2023/02/17 01:43:30;;;;;;;19.88;13.40;;;11.10;99.90;;;;;;5072456;28;20020;-68
2023/02/17 01:45:57;;;;;;;21.45;13.63;;;11.10;99.90;;;;;;5072065;28;20098;-68
2023/02/17 01:48:44;;;;;;;21.60;13.35;;;11.10;99.90;;;;;;5072245;28;20109;-68
2023/02/17 01:51:21;;;;;;;18.17;12.13;;;11.20;99.90;;;;;;5070848;28;20108;-68
2023/02/17 01:53:56;;;;;;;17.92;12.32;;;11.20;99.90;;;;;;5071877;28;20028;-69
2023/02/17 01:56:24;;;;;;;20.08;12.63;;;11.10;99.90;;;;;;5071789;28;20031;-69
2023/02/17 01:58:56;;;;;;;19.47;13.07;;;11.10;99.90;;;;;;5072338;28;20025;-70
2023/02/17 02:01:22;;;;;;;20.80;13.82;;;11.10;99.90;;;;;;5071828;28;20726;-70
2023/02/17 02:03:50;;;;;;;19.83;13.15;;;11.20;99.90;;;;;;5071544;28;20278;-70
2023/02/17 02:06:17;;;;;;;;;;;11.20;99.90;;;;;;5071119;28;20021;-70
2023/02/17 02:09:12;;;;;;;22.13;14.55;;;11.30;99.90;;;;;;5071459;28;19995;-68
2023/02/17 02:11:37;;;;;;;21.13;13.13;;;11.30;99.90;;;;;;5070767;28;20443;-69
2023/02/17 02:14:05;;;;;;;21.40;13.95;;;11.30;99.90;;;;;;5070440;28;20132;-70
2023/02/17 02:16:50;;;;;;;;;;;11.20;99.90;;;;;;5072212;28;20027;-71
2023/02/17 02:19:37;;;;;;;21.42;14.23;;;11.20;99.90;;;;;;5071622;28;19930;-70
2023/02/17 02:22:17;;;;;;;22.92;14.40;;;11.30;99.90;;;;;;5071098;28;20024;-70
2023/02/17 02:24:55;;;;;;;20.52;13.40;;;11.30;99.90;;;;;;5071050;28;20469;-70
2023/02/17 02:27:33;;;;;;;24.58;14.68;;;11.30;99.90;;;;;;5070979;28;20064;-70
2023/02/17 02:30:22;;;;;;;21.92;14.77;;;11.40;99.90;;;;;;5071045;28;20029;-69
2023/02/17 02:32:53;;;;;;;24.67;14.98;;;11.30;99.90;;;;;;5070981;28;20035;-70
2023/02/17 02:35:28;;;;;;;22.60;14.98;;;11.30;99.90;;;;;;5074868;28;20032;-70
2023/02/17 02:38:01;;;;;;;23.90;15.15;;;11.40;99.90;;;;;;5090961;28;20406;-70
2023/02/17 02:40:33;;;;;;;22.23;14.63;;;11.30;99.90;;;;;;5091563;28;20366;-68
2023/02/17 02:43:01;;;;;;;21.85;14.50;;;11.40;99.90;;;;;;5090981;28;20051;-70
2023/02/17 02:45:26;;;;;;;24.83;14.80;;;11.40;99.90;;;;;;5091084;28;20081;-70
2023/02/17 02:47:54;;;;;;;21.77;14.23;;;11.50;99.90;;;;;;5091356;28;20036;-70
2023/02/17 02:50:26;;;;;;;26.20;14.55;;;11.40;99.90;;;;;;5091257;28;20028;-72
2023/02/17 02:53:04;;;;;;;24.42;15.25;;;11.40;99.90;;;;;;5089816;28;20020;-70
2023/02/17 02:55:44;;;;;;;21.33;13.90;;;11.40;99.90;;;;;;5091321;28;20024;-70
2023/02/17 02:58:17;;;;;;;21.23;13.68;;;11.50;99.90;;;;;;5091098;28;20093;-69
2023/02/17 03:00:52;;;;;;;18.85;13.25;;;11.50;99.90;;;;;;5090952;28;20032;-70
2023/02/17 03:03:38;;;;;;;18.35;12.52;;;11.60;99.90;;;;;;5090739;28;20032;-70
2023/02/17 03:06:25;;;;;;;18.98;13.00;;;11.50;99.90;;;;;;5089034;28;20367;-69
2023/02/17 03:08:57;;;;;;;20.52;13.20;;;11.50;99.90;;;;;;5090697;28;20050;-70
2023/02/17 03:11:33;;;;;;;18.30;12.57;;;11.60;99.90;;;;;;5090522;28;20123;-70
2023/02/17 03:14:02;;;;;;;22.17;13.50;;;11.60;99.90;;;;;;5090465;28;20020;-70
2023/02/17 03:16:29;;;;;;;20.63;13.85;;;11.50;99.90;;;;;;5089986;28;20028;-70
2023/02/17 03:18:54;;;;;;;17.75;12.95;;;11.50;99.90;;;;;;5089422;28;20032;-69
2023/02/17 03:21:21;;;;;;;18.55;13.00;;;11.50;99.90;;;;;;5090094;28;20416;-69
2023/02/17 03:23:46;;;;;;;18.73;12.50;;;11.50;99.90;;;;;;5090368;28;20032;-70
2023/02/17 03:26:12;;;;;;;18.85;13.52;;;11.70;99.90;;;;;;5090452;28;20132;-70
2023/02/17 03:28:38;;;;;;;19.33;13.48;;;11.50;99.90;;;;;;5090703;28;20071;-69
2023/02/17 03:31:03;;;;;;;20.23;13.85;;;11.60;99.90;;;;;;5090601;28;20115;-69
2023/02/17 03:33:29;;;;;;;19.80;14.05;;;11.60;99.90;;;;;;5089194;28;20123;-69
2023/02/17 03:35:55;;;;;;;20.33;14.13;;;11.50;99.90;;;;;;5090402;28;20311;-69
2023/02/17 03:38:20;;;;;;;20.90;13.68;;;11.60;99.90;;;;;;5090053;28;20032;-70
2023/02/17 03:40:46;;;;;;;21.63;13.82;;;11.50;99.90;;;;;;5090660;28;20052;-70
2023/02/17 03:43:11;;;;;;;18.33;12.30;;;11.60;99.90;;;;;;5090118;28;20059;-69
2023/02/17 03:45:37;;;;;;;19.95;13.93;;;11.60;99.90;;;;;;5089041;28;20043;-70
2023/02/17 03:48:03;;;;;;;17.48;12.27;;;11.70;99.90;;;;;;5090015;28;20097;-70
2023/02/17 03:50:29;;;;;;;21.80;14.48;;;11.70;99.90;;;;;;5089057;28;20361;-70
2023/02/17 03:52:55;;;;;;;18.58;12.90;;;11.70;99.90;;;;;;5090208;28;20404;-71
2023/02/17 03:55:21;;;;;;;22.55;14.15;;;11.70;99.90;;;;;;5090499;28;20020;-70
2023/02/17 03:57:47;;;;;;;19.65;12.85;;;11.60;99.90;;;;;;5090042;28;20439;-69
2023/02/17 04:00:13;;;;;;;19.25;12.73;;;11.70;99.90;;;;;;5089896;28;20167;-70
2023/02/17 04:02:39;;;;;;;17.60;12.98;;;11.60;99.90;;;;;;5090016;28;20098;-70
2023/02/17 04:05:05;;;;;;;19.35;12.45;;;11.70;99.90;;;;;;5089360;28;20466;-70
2023/02/17 04:07:30;;;;;;;18.35;12.32;;;11.60;99.90;;;;;;5089367;28;20431;-70
2023/02/17 04:09:56;;;;;;;17.55;12.77;;;11.70;99.90;;;;;;5089765;28;20389;-70
2023/02/17 04:12:22;;;;;;;17.00;11.48;;;11.70;99.90;;;;;;5089721;28;20020;-70
2023/02/17 04:14:47;;;;;;;19.50;12.48;;;11.70;99.90;;;;;;5089927;28;20032;-70
2023/02/17 04:17:13;;;;;;;18.92;11.75;;;11.70;99.90;;;;;;5089892;28;20111;-70
2023/02/17 04:19:39;;;;;;;18.35;11.55;;;11.70;99.90;;;;;;5090484;28;20020;-70
2023/02/17 04:22:07;;;;;;;18.48;12.77;;;11.70;99.90;;;;;;5088881;28;20451;-69
2023/02/17 04:24:35;;;;;;;15.32;10.68;;;11.70;99.90;;;;;;5088850;28;20042;-70
2023/02/17 04:27:02;;;;;;;;;;;11.70;99.90;;;;;;5090092;28;20039;-69
2023/02/17 04:29:27;;;;;;;16.45;11.20;;;11.70;99.90;;;;;;5089716;28;19965;-70
2023/02/17 04:31:53;;;;;;;16.45;11.05;;;11.60;99.90;;;;;;5089695;28;20032;-70
2023/02/17 04:34:18;;;;;;;16.98;11.50;;;11.70;99.90;;;;;;5092442;28;20046;-70
2023/02/17 04:36:44;;;;;;;15.43;10.93;;;11.70;99.90;;;;;;5093513;28;20099;-70
2023/02/17 04:39:10;;;;;;;17.23;11.55;;;11.70;99.90;;;;;;5093456;28;20047;-70
2023/02/17 04:41:35;;;;;;;16.77;10.95;;;11.70;99.90;;;;;;5093314;28;20067;-70
2023/02/17 04:44:01;;;;;;;17.05;11.20;;;11.70;99.90;;;;;;5093190;28;20102;-70
2023/02/17 04:46:26;;;;;;;16.35;10.93;;;11.70;99.90;;;;;;5093831;28;20427;-70
2023/02/17 04:48:52;;;;;;;17.48;12.00;;;11.80;99.90;;;;;;5093386;28;20476;-70
2023/02/17 04:51:17;;;;;;;14.35;10.25;;;11.70;99.90;;;;;;5092179;28;20043;-69
2023/02/17 04:53:43;;;;;;;18.40;11.45;;;11.70;99.90;;;;;;5093195;28;20465;-70
2023/02/17 04:56:09;;;;;;;17.45;11.60;;;11.80;99.90;;;;;;5093393;28;20426;-70
2023/02/17 04:58:35;;;;;;;15.63;11.23;;;11.80;99.90;;;;;;5093687;28;20024;-69
2023/02/17 05:01:00;;;;;;;14.60;10.25;;;11.80;99.90;;;;;;5093064;28;20052;-70
2023/02/17 05:03:26;;;;;;;15.52;11.15;;;11.80;99.90;;;;;;5093079;28;20098;-70
2023/02/17 05:05:52;;;;;;;15.70;10.38;;;11.80;99.90;;;;;;5093043;28;20039;-69
2023/02/17 05:08:17;;;;;;;14.95;10.95;;;11.80;99.90;;;;;;5092712;28;20039;-70
2023/02/17 05:10:43;;;;;;;15.70;11.18;;;11.80;99.90;;;;;;5093525;28;20474;-70
2023/02/17 05:13:09;;;;;;;16.30;11.00;;;11.80;99.90;;;;;;5092990;28;20040;-70
2023/02/17 05:15:34;;;;;;;16.42;10.50;;;11.70;99.90;;;;;;5092868;28;20481;-69
2023/02/17 05:18:00;;;;;;;14.73;10.52;;;11.70;99.90;;;;;;5092615;28;20376;-70
2023/02/17 05:20:26;;;;;;;16.88;10.70;;;11.70;99.90;;;;;;5092782;28;20059;-70
2023/02/17 05:22:52;;;;;;;14.10;10.07;;;11.80;99.90;;;;;;5092557;28;20433;-70
2023/02/17 05:25:17;;;;;;;15.50;11.02;;;11.80;99.90;;;;;;5091999;28;20027;-70
2023/02/17 05:27:43;;;;;;;18.15;10.65;;;11.80;99.90;;;;;;5091266;28;20055;-70
2023/02/17 05:30:09;;;;;;;16.15;10.98;;;11.80;99.90;;;;;;5092333;28;20024;-70
2023/02/17 05:32:35;;;;;;;14.60;10.50;;;11.80;99.90;;;;;;5092644;28;20024;-69
2023/02/17 05:35:00;;;;;;;17.48;11.57;;;11.80;99.90;;;;;;5092374;28;20430;-70
2023/02/17 05:37:26;;;;;;;19.35;12.68;;;11.80;99.90;;;;;;5093067;28;20028;-70
2023/02/17 05:39:52;;;;;;;17.77;12.15;;;11.80;99.90;;;;;;5092325;28;20462;-70
2023/02/17 05:42:17;;;;;;;20.13;12.82;;;11.80;99.90;;;;;;5092351;28;20339;-71
2023/02/17 05:44:43;;;;;;;17.63;12.40;;;11.90;99.90;;;;;;5091934;28;20089;-70
2023/02/17 05:47:08;;;;;;;19.80;12.50;;;11.80;99.90;;;;;;5092177;28;20036;-70
2023/02/17 05:49:34;;;;;;;18.73;12.43;;;11.70;99.90;;;;;;5092775;28;20358;-70
2023/02/17 05:52:00;;;;;;;22.90;14.02;;;11.80;99.90;;;;;;5092189;28;20050;-70
2023/02/17 05:54:26;;;;;;;17.98;12.73;;;11.80;99.90;;;;;;5092102;28;20094;-70
2023/02/17 05:56:52;;;;;;;18.52;13.02;;;11.90;99.90;;;;;;5091948;28;20036;-71
2023/02/17 05:59:17;;;;;;;20.05;13.30;;;12.00;99.90;;;;;;5091866;28;20090;-70
2023/02/17 06:01:43;;;;;;;20.50;13.80;;;11.90;99.90;;;;;;5091330;28;20111;-70
2023/02/17 06:04:08;;;;;;;20.85;13.40;;;11.90;99.90;;;;;;5091904;28;20035;-69
2023/02/17 06:06:34;;;;;;;20.80;14.20;;;11.80;99.90;;;;;;5090737;28;20034;-70
2023/02/17 06:09:00;;;;;;;21.65;13.70;;;12.00;99.90;;;;;;5091689;28;20501;-71
2023/02/17 06:11:25;;;;;;;21.73;13.80;;;12.00;99.90;;;;;;5091484;28;20339;-71
2023/02/17 06:13:51;;;;;;;24.05;13.60;;;12.00;99.90;;;;;;5091397;28;20032;-70
2023/02/17 06:16:17;;;;;;;21.70;13.75;;;12.00;99.90;;;;;;5092157;28;20035;-69
2023/02/17 06:18:42;;;;;;;23.95;14.32;;;12.00;99.90;;;;;;5091434;28;20036;-69
2023/02/17 06:21:09;;;;;;;24.92;15.38;;;12.00;99.90;;;;;;5091846;28;20093;-70
2023/02/17 06:23:34;;;;;;;18.80;13.35;;;12.00;99.90;;;;;;5091357;28;20028;-70
2023/02/17 06:26:00;;;;;;;22.95;14.50;;;12.10;99.90;;;;;;5091253;28;20027;-69
2023/02/17 06:28:26;;;;;;;21.23;14.05;;;12.10;99.90;;;;;;5090515;28;20044;-69
2023/02/17 06:30:51;;;;;;;21.70;14.50;;;12.30;99.90;;;;;;5091283;28;20039;-70
2023/02/17 06:33:17;;;;;;;21.27;14.27;;;12.20;99.90;;;;;;5091227;28;20089;-69
2023/02/17 06:35:47;;;;;;;22.73;14.88;;;12.20;99.90;;;;;;5091446;28;20032;-71
2023/02/17 06:38:13;;;;;;;20.67;14.35;;;12.10;99.90;;;;;;5089941;28;20036;-69
2023/02/17 06:40:39;;;;;;;21.33;14.50;;;12.10;99.90;;;;;;5091500;28;20451;-70
2023/02/17 06:43:05;;;;;;;24.50;16.15;;;12.10;99.90;;;;;;5091300;28;20105;-69
2023/02/17 06:45:31;;;;;;;25.83;15.32;;;12.10;99.90;;;;;;5091052;28;20027;-70
2023/02/17 06:47:56;;;;;;;23.77;15.95;;;12.20;99.90;;;;;;5091026;28;20039;-70
2023/02/17 06:50:22;;;;;;;25.58;15.50;;;12.00;99.90;;;;;;5091083;28;20057;-70
2023/02/17 06:52:48;;;;;;;25.75;16.02;;;12.10;99.90;;;;;;5091304;28;20107;-69
2023/02/17 06:55:13;;;;;;;26.00;16.73;;;12.20;99.90;;;;;;5090793;28;20055;-69
2023/02/17 06:57:39;;;;;;;30.58;17.35;;;12.20;99.90;;;;;;5090037;28;20028;-69
2023/02/17 07:00:07;;;;;;;26.77;16.90;;;12.20;99.90;;;;;;5090877;28;20411;-69
2023/02/17 07:02:32;;;;;;;24.85;16.52;;;12.20;99.90;;;;;;5090762;28;20032;-69
2023/02/17 07:04:58;;;;;;;26.08;16.55;;;12.30;99.90;;;;;;5090467;28;20028;-68
2023/02/17 07:07:24;;;;;;;26.00;16.80;;;12.30;99.90;;;;;;5091183;28;20032;-69
2023/02/17 07:09:49;;;;;;;27.27;16.73;;;12.40;99.90;;;;;;5090495;28;20150;-70
2023/02/17 07:12:15;;;;;;;25.08;16.65;;;12.30;99.90;;;;;;5090802;28;20035;-71
2023/02/17 07:14:41;;;;;;;27.88;17.17;;;12.20;99.90;;;;;;5090563;28;20032;-68
2023/02/17 07:17:06;;;;;;;26.58;16.55;;;12.30;99.90;;;;;;5089778;28;20084;-69
2023/02/17 07:19:32;;;;;;;24.27;16.35;;;12.30;99.90;;;;;;5089594;28;20418;-70
2023/02/17 07:21:58;;;;;;;24.45;17.17;;;12.30;99.90;;;;;;5090585;28;20422;-70
2023/02/17 07:24:23;;;;;;;25.70;17.00;;;12.30;99.90;;;;;;5089343;28;20039;-69
2023/02/17 07:26:49;;;;;;;20.70;15.00;;;12.30;99.90;;;;;;5086647;28;20480;-69
2023/02/17 07:29:14;;;;;;;24.55;14.93;;;12.30;99.90;;;;;;5050013;28;20116;-69
2023/02/17 07:31:40;;;;;;;21.75;14.05;;;12.30;99.90;;;;;;5050551;28;20036;-68
2023/02/17 07:34:06;;;;;;;22.25;14.13;;;12.30;99.90;;;;;;5050031;28;20060;-69
2023/02/17 07:36:32;;;;;;;23.73;14.80;;;12.40;99.90;;;;;;5049933;28;20107;-70
2023/02/17 07:38:58;;;;;;;22.67;14.18;;;12.30;99.90;;;;;;5049730;28;20057;-69
2023/02/17 07:41:27;;;;;;;23.42;15.85;;;12.30;99.90;;;;;;5049955;28;20047;-69
2023/02/17 07:43:55;;;;;;;23.02;15.65;;;12.30;99.90;;;;;;5049824;28;20045;-70
2023/02/17 07:46:20;;;;;;;25.52;17.35;;;12.30;99.90;;;;;;5050834;28;20013;-73
2023/02/17 07:48:47;;;;;;;27.17;17.88;;;12.30;99.90;;;;;;5050042;28;20035;-70
2023/02/17 07:51:17;;;;;;;24.75;17.73;;;12.30;99.90;;;;;;5050024;28;20036;-69
2023/02/17 07:53:43;;;;;;;27.20;18.05;;;12.40;99.90;;;;;;5048979;28;20033;-71
2023/02/17 07:56:12;;;;;;;26.45;17.80;;;12.30;99.90;;;;;;5048876;28;20420;-71
2023/02/17 07:58:40;;;;;;;27.10;17.52;;;12.40;99.90;;;;;;5050468;28;20025;-70
2023/02/17 08:01:07;;;;;;;29.70;18.73;;;12.30;99.90;;;;;;5050147;28;20026;-71
2023/02/17 08:03:33;;;;;;;28.73;17.42;;;12.30;99.90;;;;;;5049995;28;20035;-70
2023/02/17 08:05:59;;;;;;;28.38;18.33;;;12.40;99.90;;;;;;5049859;28;20374;-70
2023/02/17 08:13:58;;;;;;;33.38;18.63;;;12.40;99.90;;;;;;5054014;28;20036;-70
2023/02/17 08:16:27;;;;;;;29.30;18.40;;;12.40;99.90;;;;;;5054436;28;20463;-70
2023/02/17 08:18:56;;;;;;;29.92;17.75;;;12.40;99.90;;;;;;5053860;28;20120;-71
2023/02/17 08:21:23;;;;;;;26.85;16.92;;;12.40;99.90;;;;;;5053623;28;20047;-70
2023/02/17 08:23:49;;;;;;;27.10;17.93;;;12.40;99.90;;;;;;5053721;28;20040;-72
2023/02/17 08:26:16;;;;;;;28.98;18.40;;;12.40;99.90;;;;;;5052960;28;20025;-70
2023/02/17 08:28:43;;;;;;;25.10;16.83;;;12.50;99.90;;;;;;5053903;28;20439;-71
2023/02/17 08:31:32;;;;;;;26.83;16.33;;;12.40;99.90;;;;;;5053754;28;20474;-71
2023/02/17 08:34:05;;;;;;;22.35;16.02;;;12.50;99.90;;;;;;5053662;28;20033;-70
2023/02/17 08:36:32;;;;;;;22.15;14.77;;;12.50;99.90;;;;;;5053409;28;20053;-70
2023/02/17 08:38:58;;;;;;;23.83;15.93;;;12.40;99.90;;;;;;5053345;28;20036;-70
2023/02/17 08:41:31;;;;;;;23.75;16.73;;;12.50;99.90;;;;;;5053829;28;20036;-70
2023/02/17 08:43:59;;;;;;;25.65;15.80;;;12.50;99.90;;;;;;5053396;28;20059;-72
2023/02/17 08:46:25;;;;;;;23.90;15.32;;;12.50;99.90;;;;;;5053867;28;20020;-71
2023/02/17 08:48:51;;;;;;;23.63;15.85;;;12.50;99.90;;;;;;5053232;28;20021;-70
2023/02/17 08:51:24;;;;;;;21.60;15.10;;;12.50;99.90;;;;;;5053273;28;20128;-72
2023/02/17 08:53:53;;;;;;;20.75;13.90;;;12.50;99.90;;;;;;5052071;28;20021;-72
2023/02/17 08:56:19;;;;;;;22.80;14.48;;;12.50;99.90;;;;;;5053434;28;20041;-72
2023/02/17 08:58:45;;;;;;;24.15;13.40;;;12.50;99.90;;;;;;5053547;28;20025;-72
2023/02/17 09:01:11;;;;;;;21.95;14.25;;;12.50;99.90;;;;;;5052137;28;20116;-72
2023/02/17 09:03:37;;;;;;;21.20;13.27;;;12.40;99.90;;;;;;5053227;28;20033;-72
2023/02/17 09:06:04;;;;;;;22.25;13.27;;;12.50;99.90;;;;;;5053472;28;20095;-71
2023/02/17 09:08:29;;;;;;;20.00;13.13;;;12.50;99.90;;;;;;5053166;28;20025;-70
2023/02/17 09:10:55;;;;;;;20.40;11.60;;;12.50;99.90;;;;;;5052299;28;20023;-70
2023/02/17 09:13:21;;;;;;;17.02;11.70;;;12.60;99.90;;;;;;5053598;28;20025;-70
2023/02/17 09:15:48;;;;;;;17.85;11.93;;;12.60;99.90;;;;;;5051713;28;20467;-71
2023/02/17 09:18:15;;;;;;;19.92;11.57;;;12.50;99.90;;;;;;5052868;28;20044;-70
2023/02/17 09:20:41;;;;;;;16.35;11.48;;;12.60;99.90;;;;;;5050967;28;20052;-70
2023/02/17 09:23:07;;;;;;;17.15;11.25;;;12.70;99.90;;;;;;5051255;28;20450;-70
2023/02/17 09:25:33;;;;;;;15.10;10.43;;;12.70;99.90;;;;;;5051966;28;20029;-69
2023/02/17 09:27:59;;;;;;;16.58;10.45;;;12.80;99.90;;;;;;5052358;28;20079;-70
2023/02/17 09:30:24;;;;;;;15.57;10.07;;;12.70;99.90;;;;;;5052475;28;20037;-70
2023/02/17 09:32:50;;;;;;;14.43;9.68;;;12.70;99.90;;;;;;5051561;28;20623;-70
2023/02/17 09:35:17;;;;;;;14.32;9.05;;;12.70;99.90;;;;;;5051391;28;20475;-71
2023/02/17 09:37:43;;;;;;;16.92;9.00;;;12.80;99.90;;;;;;5053059;28;20021;-70
2023/02/17 09:40:23;;;;;;;14.15;9.48;;;12.70;99.90;;;;;;5052301;28;20033;-70
2023/02/17 09:42:49;;;;;;;14.90;8.43;;;12.70;99.90;;;;;;5052327;28;20029;-70
2023/02/17 09:45:24;;;;;;;15.40;8.35;;;12.70;99.90;;;;;;5052011;28;20086;-71
2023/02/17 09:47:53;;;;;;;15.15;9.07;;;12.70;99.90;;;;;;5052292;28;20025;-70
2023/02/17 09:50:33;;;;;;;12.10;8.30;;;12.90;99.90;;;;;;5052551;28;20025;-72
2023/02/17 09:53:05;;;;;;;13.88;8.48;;;12.80;99.90;;;;;;5050810;28;20025;-71
2023/02/17 09:55:37;;;;;;;13.23;8.07;;;12.80;99.90;;;;;;5052340;28;20028;-72
2023/02/17 09:58:13;;;;;;;14.75;9.63;;;12.80;99.90;;;;;;5052046;28;20545;-70
2023/02/17 10:00:49;;;;;;;15.07;9.00;;;12.80;99.90;;;;;;5052037;28;20044;-72
2023/02/17 10:03:48;;;;;;;14.70;9.52;;;12.80;99.90;;;;;;5050553;28;20363;-71
2023/02/17 10:06:30;;;;;;;12.95;9.07;;;12.80;99.90;;;;;;5047489;28;20036;-71
2023/02/17 10:09:00;;;;;;;13.52;9.75;;;12.80;99.90;;;;;;5050537;28;20128;-73
2023/02/17 10:11:52;;;;;;;14.52;9.32;;;12.80;99.90;;;;;;5051492;28;20025;-73
2023/02/17 10:14:44;;;;;;;20.30;10.18;;;12.90;99.90;;;;;;5041057;28;20481;-72
2023/02/17 10:17:28;;;;;;;15.82;9.98;;;12.80;99.90;;;;;;5039947;28;20367;-73
2023/02/17 10:20:12;;;;;;;15.95;10.88;;;12.90;99.90;;;;;;5050426;28;20061;-71
2023/02/17 10:22:44;;;;;;;17.95;10.25;;;12.80;99.90;;;;;;5050862;28;20362;-72
2023/02/17 10:25:16;;;;;;;20.25;11.75;;;12.90;99.90;;;;;;5051400;28;20044;-72
2023/02/17 10:27:51;;;;;;;18.63;11.25;;;12.90;99.90;;;;;;5051183;28;20520;-71
2023/02/17 10:30:22;;;;;;;18.02;11.10;;;12.90;99.90;;;;;;5050809;28;20029;-69
2023/02/17 10:33:06;;;;;;;18.17;11.55;;;12.90;99.90;;;;;;5050976;28;20028;-72
2023/02/17 10:35:49;;;;;;;19.77;12.50;;;12.90;99.90;;;;;;5051190;28;20052;-70
2023/02/17 10:38:44;;;;;;;24.13;13.88;;;12.90;99.90;;;;;;5051204;28;20055;-72
2023/02/17 10:41:14;;;;;;;25.10;14.93;;;12.90;99.90;;;;;;5050964;28;20092;-70
2023/02/17 10:43:43;;;;;;;23.52;14.75;;;12.90;99.90;;;;;;5051377;28;20032;-71
2023/02/17 10:46:12;;;;;;;21.48;14.35;;;12.90;99.90;;;;;;5050722;28;20045;-70
2023/02/17 10:48:40;;;;;;;26.65;14.20;;;12.90;99.90;;;;;;5050903;28;20099;-71
2023/02/17 10:51:06;;;;;;;26.25;15.75;;;12.90;99.90;;;;;;5050914;28;20078;-71
2023/02/17 10:53:36;;;;;;;24.23;16.17;;;13.00;99.90;;;;;;5051045;28;20022;-71
2023/02/17 10:56:27;;;;;;;26.15;15.73;;;12.90;99.90;;;;;;5050681;28;20029;-72
2023/02/17 10:58:56;;;;;;;26.80;16.17;;;12.90;99.90;;;;;;5050773;28;20091;-70
2023/02/17 11:01:24;;;;;;;25.60;16.02;;;13.00;99.90;;;;;;5049958;28;20017;-72
2023/02/17 11:04:07;;;;;;;25.98;16.05;;;13.00;99.90;;;;;;5050590;28;20082;-72
2023/02/17 11:06:50;;;;;;;27.83;16.73;;;13.10;99.90;;;;;;5049416;28;20100;-72
2023/02/17 11:09:20;;;;;;;28.98;17.55;;;13.20;99.90;;;;;;5050432;28;20032;-70
2023/02/17 11:12:25;;;;;;;27.55;16.88;;;13.20;99.90;;;;;;5050347;28;20029;-70
2023/02/17 11:14:53;;;;;;;25.75;17.00;;;13.20;99.90;;;;;;5048006;28;20025;-73
2023/02/17 11:17:45;;;;;;;29.45;17.23;;;13.20;99.90;;;;;;5050104;28;20048;-71
2023/02/17 11:20:14;;;;;;;25.17;16.52;;;13.30;99.90;;;;;;5050218;28;20045;-71
2023/02/17 11:23:19;;;;;;;27.05;16.30;;;13.30;99.90;;;;;;5050671;28;20155;-71
2023/02/17 11:26:19;;;;;;;26.13;16.50;;;13.30;99.90;;;;;;4991845;28;20100;-70
2023/02/17 11:28:45;;;;;;;27.40;16.55;;;13.30;99.90;;;;;;5048405;28;20076;-69
2023/02/17 11:31:27;;;;;;;24.65;16.58;;;13.40;99.90;;;;;;5050320;28;20033;-69
2023/02/17 11:33:53;;;;;;;29.10;17.25;;;13.60;99.90;;;;;;5050201;28;20052;-71
2023/02/17 11:36:29;;;;;;;26.98;17.40;;;13.70;99.90;;;;;;5048911;28;20124;-71
2023/02/17 11:38:56;;;;;;;23.63;15.85;;;13.50;99.90;;;;;;5048778;28;20033;-69
2023/02/17 11:41:22;;;;;;;26.95;16.00;;;13.60;99.90;;;;;;5050093;28;20044;-70
2023/02/17 11:43:57;;;;;;;24.45;15.57;;;13.60;99.90;;;;;;5056967;28;20114;-72
2023/02/17 11:46:39;;;;;;;22.08;15.23;;;13.70;99.90;;;;;;5056589;28;20403;-70
2023/02/17 11:49:28;;;;;;;26.20;14.50;;;13.70;99.90;;;;;;5056523;28;20025;-70
2023/02/17 11:52:30;;;;;;;21.80;14.15;;;13.80;99.90;;;;;;5056465;28;20029;-70
2023/02/17 11:55:21;;;;;;;19.88;12.82;;;13.80;99.90;;;;;;5056632;28;20108;-69
2023/02/17 11:57:55;;;;;;;23.02;13.20;;;13.90;99.90;;;;;;5056902;28;20052;-71
2023/02/17 12:00:23;;;;;;;21.52;13.23;;;13.90;99.90;;;;;;5055391;28;20043;-70
2023/02/17 12:02:48;;;;;;;23.58;13.48;;;14.00;99.90;;;;;;5056720;28;20028;-70
2023/02/17 12:05:31;;;;;;;17.77;11.82;;;14.00;99.90;;;;;;5056659;28;20091;-70
2023/02/17 12:08:02;;;;;;;16.27;11.75;;;14.00;99.90;;;;;;5056581;28;20014;-69
2023/02/17 12:10:44;;;;;;;20.00;12.38;;;14.10;99.90;;;;;;5056889;28;20119;-69
2023/02/17 12:13:15;;;;;;;20.15;11.50;;;14.20;99.90;;;;;;5056432;28;20032;-69
2023/02/17 12:15:47;;;;;;;16.63;11.73;;;14.30;99.90;;;;;;5056384;28;20489;-70
2023/02/17 12:18:25;;;;;;;22.45;12.35;;;14.40;99.90;;;;;;5055233;28;20039;-70
2023/02/17 12:21:25;;;;;;;17.05;11.52;;;14.40;99.90;;;;;;5056385;28;20024;-71
2023/02/17 12:24:12;;;;;;;18.17;11.50;;;14.40;99.90;;;;;;5056107;28;20090;-69
2023/02/17 12:26:41;;;;;;;15.98;10.15;;;14.40;99.90;;;;;;5055149;28;20462;-70
2023/02/17 12:29:50;;;;;;;15.23;10.48;;;14.30;99.90;;;;;;5056015;28;20069;-70
2023/02/17 12:32:39;;;;;;;17.02;10.73;;;14.40;99.90;;;;;;5055239;28;20028;-70
2023/02/17 12:35:20;;;;;;;16.15;10.82;;;14.40;99.90;;;;;;5055242;28;20028;-70
2023/02/17 12:38:02;;;;;;;15.10;10.73;;;14.30;99.90;;;;;;5056742;28;20032;-70
2023/02/17 12:40:36;;;;;;;13.85;9.88;;;14.20;99.90;;;;;;5056229;28;20040;-69
2023/02/17 12:43:37;;;;;;;14.23;9.88;;;14.30;99.90;;;;;;5056227;28;20475;-69
2023/02/17 12:46:09;;;;;;;13.30;7.90;;;14.20;99.90;;;;;;5054975;28;20436;-69
2023/02/17 12:48:41;;;;;;;16.20;8.82;;;14.20;99.90;;;;;;5056285;28;20114;-70